sensor_id;sensor_type;location;lat;lon;timestamp;P1;durP1;ratioP1;P2;durP2;ratioP2
46415;SDS011;32620;51.704;7.822;2023-03-01T00:00:38;22.02;;;13.13;;
46415;SDS011;32620;51.704;7.822;2023-03-01T00:03:03;20.85;;;12.48;;
46415;SDS011;32620;51.704;7.822;2023-03-01T00:05:29;25.85;;;13.85;;
46415;SDS011;32620;51.704;7.822;2023-03-01T00:07:55;22.23;;;13.00;;
46415;SDS011;32620;51.704;7.822;2023-03-01T00:10:20;25.15;;;13.65;;
46415;SDS011;32620;51.704;7.822;2023-03-01T00:12:46;24.00;;;13.00;;
46415;SDS011;32620;51.704;7.822;2023-03-01T00:15:11;22.30;;;13.93;;
46415;SDS011;32620;51.704;7.822;2023-03-01T00:17:37;21.55;;;13.30;;
46415;SDS011;32620;51.704;7.822;2023-03-01T00:20:03;21.75;;;13.63;;
46415;SDS011;32620;51.704;7.822;2023-03-01T00:22:32;21.77;;;12.80;;
46415;SDS011;32620;51.704;7.822;2023-03-01T00:24:58;22.27;;;12.98;;
46415;SDS011;32620;51.704;7.822;2023-03-01T00:27:23;22.25;;;13.32;;
46415;SDS011;32620;51.704;7.822;2023-03-01T00:29:49;24.75;;;14.10;;
46415;SDS011;32620;51.704;7.822;2023-03-01T00:32:14;24.75;;;13.98;;
46415;SDS011;32620;51.704;7.822;2023-03-01T00:34:40;25.77;;;14.32;;
46415;SDS011;32620;51.704;7.822;2023-03-01T00:37:05;26.83;;;14.98;;
46415;SDS011;32620;51.704;7.822;2023-03-01T00:39:31;35.53;;;16.10;;
46415;SDS011;32620;51.704;7.822;2023-03-01T00:41:58;27.17;;;14.57;;
46415;SDS011;32620;51.704;7.822;2023-03-01T00:44:23;23.73;;;12.25;;
46415;SDS011;32620;51.704;7.822;2023-03-01T00:46:49;21.30;;;13.15;;
46415;SDS011;32620;51.704;7.822;2023-03-01T00:49:14;27.40;;;13.32;;
46415;SDS011;32620;51.704;7.822;2023-03-01T00:51:40;22.17;;;13.00;;
46415;SDS011;32620;51.704;7.822;2023-03-01T00:54:07;22.52;;;13.40;;
46415;SDS011;32620;51.704;7.822;2023-03-01T00:56:34;27.67;;;13.18;;
46415;SDS011;32620;51.704;7.822;2023-03-01T00:59:00;24.88;;;13.68;;
46415;SDS011;32620;51.704;7.822;2023-03-01T01:01:27;24.25;;;13.52;;
46415;SDS011;32620;51.704;7.822;2023-03-01T01:03:56;25.17;;;13.82;;
46415;SDS011;32620;51.704;7.822;2023-03-01T01:06:26;23.85;;;13.07;;
46415;SDS011;32620;51.704;7.822;2023-03-01T01:08:54;23.40;;;13.18;;
46415;SDS011;32620;51.704;7.822;2023-03-01T01:11:20;21.90;;;12.95;;
46415;SDS011;32620;51.704;7.822;2023-03-01T01:13:48;22.40;;;13.07;;
46415;SDS011;32620;51.704;7.822;2023-03-01T01:16:14;21.13;;;12.90;;
46415;SDS011;32620;51.704;7.822;2023-03-01T01:18:41;22.83;;;12.68;;
46415;SDS011;32620;51.704;7.822;2023-03-01T01:21:08;23.33;;;12.93;;
46415;SDS011;32620;51.704;7.822;2023-03-01T01:23:36;24.70;;;12.85;;
46415;SDS011;32620;51.704;7.822;2023-03-01T01:26:03;29.08;;;14.85;;
46415;SDS011;32620;51.704;7.822;2023-03-01T01:28:31;25.13;;;13.32;;
46415;SDS011;32620;51.704;7.822;2023-03-01T01:30:56;25.67;;;14.15;;
46415;SDS011;32620;51.704;7.822;2023-03-01T01:33:22;27.98;;;15.15;;
46415;SDS011;32620;51.704;7.822;2023-03-01T01:35:47;30.90;;;16.55;;
46415;SDS011;32620;51.704;7.822;2023-03-01T01:38:13;33.17;;;16.38;;
46415;SDS011;32620;51.704;7.822;2023-03-01T01:40:46;30.48;;;15.88;;
46415;SDS011;32620;51.704;7.822;2023-03-01T01:43:16;28.85;;;15.20;;
46415;SDS011;32620;51.704;7.822;2023-03-01T01:45:46;28.40;;;15.30;;
46415;SDS011;32620;51.704;7.822;2023-03-01T01:48:12;27.00;;;15.90;;
46415;SDS011;32620;51.704;7.822;2023-03-01T01:50:43;26.58;;;15.20;;
46415;SDS011;32620;51.704;7.822;2023-03-01T01:53:12;30.20;;;16.13;;
46415;SDS011;32620;51.704;7.822;2023-03-01T01:55:43;23.00;;;11.80;;
46415;SDS011;32620;51.704;7.822;2023-03-01T01:58:13;33.75;;;17.15;;
46415;SDS011;32620;51.704;7.822;2023-03-01T02:00:42;33.92;;;16.27;;
46415;SDS011;32620;51.704;7.822;2023-03-01T02:03:10;30.88;;;16.80;;
46415;SDS011;32620;51.704;7.822;2023-03-01T02:08:28;31.17;;;16.00;;
46415;SDS011;32620;51.704;7.822;2023-03-01T02:10:57;28.73;;;14.50;;
46415;SDS011;32620;51.704;7.822;2023-03-01T02:13:24;32.88;;;15.38;;
46415;SDS011;32620;51.704;7.822;2023-03-01T02:15:50;36.42;;;17.23;;
46415;SDS011;32620;51.704;7.822;2023-03-01T02:18:17;30.90;;;16.92;;
46415;SDS011;32620;51.704;7.822;2023-03-01T02:21:19;34.72;;;15.52;;
46415;SDS011;32620;51.704;7.822;2023-03-01T02:23:36;43.75;;;17.92;;
46415;SDS011;32620;51.704;7.822;2023-03-01T02:26:04;41.03;;;18.67;;
46415;SDS011;32620;51.704;7.822;2023-03-01T02:28:40;39.13;;;16.73;;
46415;SDS011;32620;51.704;7.822;2023-03-01T02:31:08;45.47;;;19.35;;
46415;SDS011;32620;51.704;7.822;2023-03-01T02:33:55;39.15;;;18.73;;
46415;SDS011;32620;51.704;7.822;2023-03-01T02:36:23;45.00;;;19.20;;
46415;SDS011;32620;51.704;7.822;2023-03-01T02:38:53;48.80;;;19.77;;
46415;SDS011;32620;51.704;7.822;2023-03-01T02:41:23;50.70;;;21.23;;
46415;SDS011;32620;51.704;7.822;2023-03-01T02:43:50;52.70;;;21.98;;
46415;SDS011;32620;51.704;7.822;2023-03-01T02:46:17;48.90;;;21.80;;
46415;SDS011;32620;51.704;7.822;2023-03-01T02:48:46;54.97;;;21.90;;
46415;SDS011;32620;51.704;7.822;2023-03-01T02:51:19;44.03;;;20.10;;
46415;SDS011;32620;51.704;7.822;2023-03-01T02:54:11;52.90;;;21.85;;
46415;SDS011;32620;51.704;7.822;2023-03-01T02:56:48;43.28;;;19.17;;
46415;SDS011;32620;51.704;7.822;2023-03-01T02:59:15;45.35;;;20.08;;
46415;SDS011;32620;51.704;7.822;2023-03-01T03:01:42;40.53;;;17.58;;
46415;SDS011;32620;51.704;7.822;2023-03-01T03:04:09;40.38;;;18.65;;
46415;SDS011;32620;51.704;7.822;2023-03-01T03:06:36;38.50;;;18.08;;
46415;SDS011;32620;51.704;7.822;2023-03-01T03:09:03;38.75;;;18.08;;
46415;SDS011;32620;51.704;7.822;2023-03-01T03:11:29;32.42;;;16.95;;
46415;SDS011;32620;51.704;7.822;2023-03-01T03:13:55;40.33;;;17.75;;
46415;SDS011;32620;51.704;7.822;2023-03-01T03:16:22;30.73;;;16.38;;
46415;SDS011;32620;51.704;7.822;2023-03-01T03:18:48;36.25;;;16.67;;
46415;SDS011;32620;51.704;7.822;2023-03-01T03:21:14;28.42;;;15.43;;
46415;SDS011;32620;51.704;7.822;2023-03-01T03:23:41;29.65;;;15.65;;
46415;SDS011;32620;51.704;7.822;2023-03-01T03:26:07;27.17;;;14.38;;
46415;SDS011;32620;51.704;7.822;2023-03-01T03:28:33;32.58;;;15.80;;
46415;SDS011;32620;51.704;7.822;2023-03-01T03:30:59;32.58;;;16.88;;
46415;SDS011;32620;51.704;7.822;2023-03-01T03:33:29;34.72;;;14.98;;
46415;SDS011;32620;51.704;7.822;2023-03-01T03:35:55;30.85;;;15.90;;
46415;SDS011;32620;51.704;7.822;2023-03-01T03:38:20;29.02;;;15.40;;
46415;SDS011;32620;51.704;7.822;2023-03-01T03:40:47;30.95;;;15.60;;
46415;SDS011;32620;51.704;7.822;2023-03-01T03:43:25;34.70;;;16.30;;
46415;SDS011;32620;51.704;7.822;2023-03-01T03:45:51;31.95;;;16.33;;
46415;SDS011;32620;51.704;7.822;2023-03-01T03:48:17;29.10;;;15.35;;
46415;SDS011;32620;51.704;7.822;2023-03-01T03:50:47;30.95;;;15.75;;
46415;SDS011;32620;51.704;7.822;2023-03-01T03:53:16;28.55;;;16.08;;
46415;SDS011;32620;51.704;7.822;2023-03-01T03:55:41;31.00;;;15.75;;
46415;SDS011;32620;51.704;7.822;2023-03-01T03:58:08;34.22;;;15.75;;
46415;SDS011;32620;51.704;7.822;2023-03-01T04:00:36;32.50;;;16.63;;
46415;SDS011;32620;51.704;7.822;2023-03-01T04:03:04;31.67;;;15.82;;
46415;SDS011;32620;51.704;7.822;2023-03-01T04:05:30;35.33;;;17.30;;
46415;SDS011;32620;51.704;7.822;2023-03-01T04:07:56;28.67;;;15.18;;
46415;SDS011;32620;51.704;7.822;2023-03-01T04:10:34;28.42;;;14.75;;
46415;SDS011;32620;51.704;7.822;2023-03-01T04:13:05;25.48;;;13.95;;
46415;SDS011;32620;51.704;7.822;2023-03-01T04:15:31;29.25;;;14.23;;
46415;SDS011;32620;51.704;7.822;2023-03-01T04:17:57;25.63;;;13.27;;
46415;SDS011;32620;51.704;7.822;2023-03-01T04:20:24;25.70;;;12.93;;
46415;SDS011;32620;51.704;7.822;2023-03-01T04:22:57;24.17;;;13.27;;
46415;SDS011;32620;51.704;7.822;2023-03-01T04:25:24;25.42;;;12.73;;
46415;SDS011;32620;51.704;7.822;2023-03-01T04:27:50;26.00;;;13.15;;
46415;SDS011;32620;51.704;7.822;2023-03-01T04:30:16;23.85;;;12.93;;
46415;SDS011;32620;51.704;7.822;2023-03-01T04:32:41;24.52;;;12.80;;
46415;SDS011;32620;51.704;7.822;2023-03-01T04:35:07;22.40;;;12.82;;
46415;SDS011;32620;51.704;7.822;2023-03-01T04:37:33;26.50;;;13.38;;
46415;SDS011;32620;51.704;7.822;2023-03-01T04:39:59;21.13;;;13.55;;
46415;SDS011;32620;51.704;7.822;2023-03-01T04:42:25;24.83;;;12.95;;
46415;SDS011;32620;51.704;7.822;2023-03-01T04:44:51;29.50;;;13.25;;
46415;SDS011;32620;51.704;7.822;2023-03-01T04:47:17;22.48;;;12.27;;
46415;SDS011;32620;51.704;7.822;2023-03-01T04:49:42;25.63;;;13.30;;
46415;SDS011;32620;51.704;7.822;2023-03-01T04:52:08;26.90;;;14.15;;
46415;SDS011;32620;51.704;7.822;2023-03-01T04:54:34;31.83;;;15.40;;
46415;SDS011;32620;51.704;7.822;2023-03-01T04:57:01;28.65;;;14.70;;
46415;SDS011;32620;51.704;7.822;2023-03-01T04:59:27;31.08;;;16.55;;
46415;SDS011;32620;51.704;7.822;2023-03-01T05:01:54;36.17;;;16.20;;
46415;SDS011;32620;51.704;7.822;2023-03-01T05:04:21;27.75;;;14.88;;
46415;SDS011;32620;51.704;7.822;2023-03-01T05:06:48;32.63;;;15.65;;
46415;SDS011;32620;51.704;7.822;2023-03-01T05:09:14;31.40;;;15.73;;
46415;SDS011;32620;51.704;7.822;2023-03-01T05:11:40;28.42;;;15.02;;
46415;SDS011;32620;51.704;7.822;2023-03-01T05:14:06;31.92;;;15.02;;
46415;SDS011;32620;51.704;7.822;2023-03-01T05:16:32;30.83;;;15.75;;
46415;SDS011;32620;51.704;7.822;2023-03-01T05:18:58;28.13;;;14.40;;
46415;SDS011;32620;51.704;7.822;2023-03-01T05:21:25;31.23;;;15.05;;
46415;SDS011;32620;51.704;7.822;2023-03-01T05:23:51;33.42;;;15.70;;
46415;SDS011;32620;51.704;7.822;2023-03-01T05:26:17;29.45;;;15.23;;
46415;SDS011;32620;51.704;7.822;2023-03-01T05:28:46;29.90;;;15.55;;
46415;SDS011;32620;51.704;7.822;2023-03-01T05:31:12;28.02;;;16.08;;
46415;SDS011;32620;51.704;7.822;2023-03-01T05:33:40;30.77;;;16.77;;
46415;SDS011;32620;51.704;7.822;2023-03-01T05:36:06;29.30;;;14.93;;
46415;SDS011;32620;51.704;7.822;2023-03-01T05:38:33;25.48;;;14.68;;
46415;SDS011;32620;51.704;7.822;2023-03-01T05:40:59;28.55;;;15.13;;
46415;SDS011;32620;51.704;7.822;2023-03-01T05:43:25;26.15;;;14.57;;
46415;SDS011;32620;51.704;7.822;2023-03-01T05:45:50;27.10;;;15.10;;
46415;SDS011;32620;51.704;7.822;2023-03-01T05:48:16;29.30;;;15.88;;
46415;SDS011;32620;51.704;7.822;2023-03-01T05:50:44;24.42;;;14.05;;
46415;SDS011;32620;51.704;7.822;2023-03-01T05:53:12;27.70;;;14.40;;
46415;SDS011;32620;51.704;7.822;2023-03-01T05:55:40;31.45;;;15.98;;
46415;SDS011;32620;51.704;7.822;2023-03-01T05:58:09;27.17;;;14.95;;
46415;SDS011;32620;51.704;7.822;2023-03-01T06:00:37;27.42;;;15.52;;
46415;SDS011;32620;51.704;7.822;2023-03-01T06:03:02;28.17;;;15.23;;
46415;SDS011;32620;51.704;7.822;2023-03-01T06:05:29;28.05;;;14.65;;
46415;SDS011;32620;51.704;7.822;2023-03-01T06:07:55;30.00;;;13.90;;
46415;SDS011;32620;51.704;7.822;2023-03-01T06:10:24;35.97;;;15.93;;
46415;SDS011;32620;51.704;7.822;2023-03-01T06:12:49;31.02;;;15.95;;
46415;SDS011;32620;51.704;7.822;2023-03-01T06:15:15;30.77;;;16.23;;
46415;SDS011;32620;51.704;7.822;2023-03-01T06:17:42;30.17;;;16.40;;
46415;SDS011;32620;51.704;7.822;2023-03-01T06:20:11;30.83;;;16.08;;
46415;SDS011;32620;51.704;7.822;2023-03-01T06:22:39;31.58;;;17.17;;
46415;SDS011;32620;51.704;7.822;2023-03-01T06:25:06;34.03;;;17.75;;
46415;SDS011;32620;51.704;7.822;2023-03-01T06:27:32;34.10;;;16.80;;
46415;SDS011;32620;51.704;7.822;2023-03-01T06:29:58;29.08;;;17.30;;
46415;SDS011;32620;51.704;7.822;2023-03-01T06:32:23;34.65;;;17.63;;
46415;SDS011;32620;51.704;7.822;2023-03-01T06:34:49;31.88;;;17.58;;
46415;SDS011;32620;51.704;7.822;2023-03-01T06:37:15;38.97;;;18.88;;
46415;SDS011;32620;51.704;7.822;2023-03-01T06:39:40;35.58;;;18.92;;
46415;SDS011;32620;51.704;7.822;2023-03-01T06:42:07;38.78;;;19.67;;
46415;SDS011;32620;51.704;7.822;2023-03-01T06:44:33;32.55;;;18.65;;
46415;SDS011;32620;51.704;7.822;2023-03-01T06:46:58;36.75;;;18.33;;
46415;SDS011;32620;51.704;7.822;2023-03-01T06:49:24;35.08;;;19.15;;
46415;SDS011;32620;51.704;7.822;2023-03-01T06:51:50;30.92;;;16.45;;
46415;SDS011;32620;51.704;7.822;2023-03-01T06:54:15;27.98;;;15.68;;
46415;SDS011;32620;51.704;7.822;2023-03-01T06:56:42;26.08;;;15.20;;
46415;SDS011;32620;51.704;7.822;2023-03-01T06:59:11;28.50;;;15.60;;
46415;SDS011;32620;51.704;7.822;2023-03-01T07:01:36;26.13;;;15.25;;
46415;SDS011;32620;51.704;7.822;2023-03-01T07:04:02;26.08;;;15.32;;
46415;SDS011;32620;51.704;7.822;2023-03-01T07:06:27;22.45;;;14.10;;
46415;SDS011;32620;51.704;7.822;2023-03-01T07:08:53;22.15;;;13.02;;
46415;SDS011;32620;51.704;7.822;2023-03-01T07:11:18;21.95;;;14.10;;
46415;SDS011;32620;51.704;7.822;2023-03-01T07:13:44;22.92;;;13.98;;
46415;SDS011;32620;51.704;7.822;2023-03-01T07:16:09;19.92;;;12.82;;
46415;SDS011;32620;51.704;7.822;2023-03-01T07:18:35;22.02;;;14.63;;
46415;SDS011;32620;51.704;7.822;2023-03-01T07:21:04;21.42;;;14.20;;
46415;SDS011;32620;51.704;7.822;2023-03-01T07:23:31;15.90;;;11.13;;
46415;SDS011;32620;51.704;7.822;2023-03-01T07:25:57;20.58;;;12.30;;
46415;SDS011;32620;51.704;7.822;2023-03-01T07:28:23;20.02;;;12.32;;
46415;SDS011;32620;51.704;7.822;2023-03-01T07:30:49;15.60;;;11.45;;
46415;SDS011;32620;51.704;7.822;2023-03-01T07:33:14;17.23;;;11.07;;
46415;SDS011;32620;51.704;7.822;2023-03-01T07:35:42;17.38;;;11.27;;
46415;SDS011;32620;51.704;7.822;2023-03-01T07:38:07;16.90;;;11.50;;
46415;SDS011;32620;51.704;7.822;2023-03-01T07:40:33;12.38;;;10.27;;
46415;SDS011;32620;51.704;7.822;2023-03-01T07:42:59;15.23;;;10.85;;
46415;SDS011;32620;51.704;7.822;2023-03-01T07:45:26;15.85;;;10.55;;
46415;SDS011;32620;51.704;7.822;2023-03-01T07:47:52;19.38;;;12.75;;
46415;SDS011;32620;51.704;7.822;2023-03-01T07:50:18;18.35;;;12.57;;
46415;SDS011;32620;51.704;7.822;2023-03-01T07:52:45;18.00;;;12.30;;
46415;SDS011;32620;51.704;7.822;2023-03-01T07:55:12;18.70;;;12.82;;
46415;SDS011;32620;51.704;7.822;2023-03-01T07:57:37;21.63;;;13.95;;
46415;SDS011;32620;51.704;7.822;2023-03-01T08:00:04;18.65;;;13.48;;
46415;SDS011;32620;51.704;7.822;2023-03-01T08:02:30;22.00;;;14.05;;
46415;SDS011;32620;51.704;7.822;2023-03-01T08:04:56;21.35;;;13.63;;
46415;SDS011;32620;51.704;7.822;2023-03-01T08:07:21;20.63;;;12.70;;
46415;SDS011;32620;51.704;7.822;2023-03-01T08:09:47;19.33;;;12.48;;
46415;SDS011;32620;51.704;7.822;2023-03-01T08:12:12;17.98;;;12.10;;
46415;SDS011;32620;51.704;7.822;2023-03-01T08:14:38;19.25;;;11.82;;
46415;SDS011;32620;51.704;7.822;2023-03-01T08:17:03;17.83;;;12.98;;
46415;SDS011;32620;51.704;7.822;2023-03-01T08:19:29;16.17;;;11.35;;
46415;SDS011;32620;51.704;7.822;2023-03-01T08:21:55;16.92;;;11.75;;
46415;SDS011;32620;51.704;7.822;2023-03-01T08:24:23;17.55;;;11.43;;
46415;SDS011;32620;51.704;7.822;2023-03-01T08:26:48;23.15;;;11.50;;
46415;SDS011;32620;51.704;7.822;2023-03-01T08:29:14;18.98;;;10.35;;
46415;SDS011;32620;51.704;7.822;2023-03-01T08:31:40;13.60;;;9.73;;
46415;SDS011;32620;51.704;7.822;2023-03-01T08:34:07;18.10;;;10.52;;
46415;SDS011;32620;51.704;7.822;2023-03-01T08:36:35;18.63;;;11.10;;
46415;SDS011;32620;51.704;7.822;2023-03-01T08:39:03;21.90;;;10.98;;
46415;SDS011;32620;51.704;7.822;2023-03-01T08:41:29;18.90;;;10.90;;
46415;SDS011;32620;51.704;7.822;2023-03-01T08:43:55;23.73;;;11.00;;
46415;SDS011;32620;51.704;7.822;2023-03-01T08:46:24;20.30;;;10.88;;
46415;SDS011;32620;51.704;7.822;2023-03-01T08:48:50;22.83;;;11.23;;
46415;SDS011;32620;51.704;7.822;2023-03-01T08:51:16;21.05;;;10.88;;
46415;SDS011;32620;51.704;7.822;2023-03-01T08:53:44;17.52;;;10.85;;
46415;SDS011;32620;51.704;7.822;2023-03-01T08:56:10;18.27;;;10.68;;
46415;SDS011;32620;51.704;7.822;2023-03-01T08:58:36;18.98;;;10.23;;
46415;SDS011;32620;51.704;7.822;2023-03-01T09:01:09;19.15;;;10.00;;
46415;SDS011;32620;51.704;7.822;2023-03-01T09:03:36;15.05;;;9.82;;
46415;SDS011;32620;51.704;7.822;2023-03-01T09:06:02;14.55;;;9.77;;
46415;SDS011;32620;51.704;7.822;2023-03-01T09:08:29;15.90;;;9.60;;
46415;SDS011;32620;51.704;7.822;2023-03-01T09:10:55;15.65;;;9.30;;
46415;SDS011;32620;51.704;7.822;2023-03-01T09:13:21;16.65;;;9.48;;
46415;SDS011;32620;51.704;7.822;2023-03-01T09:15:49;20.02;;;10.18;;
46415;SDS011;32620;51.704;7.822;2023-03-01T09:18:15;14.23;;;9.18;;
46415;SDS011;32620;51.704;7.822;2023-03-01T09:20:41;16.15;;;9.70;;
46415;SDS011;32620;51.704;7.822;2023-03-01T09:23:06;16.00;;;9.52;;
46415;SDS011;32620;51.704;7.822;2023-03-01T09:25:33;13.68;;;9.60;;
46415;SDS011;32620;51.704;7.822;2023-03-01T09:27:59;15.02;;;9.60;;
46415;SDS011;32620;51.704;7.822;2023-03-01T09:30:25;15.60;;;9.27;;
46415;SDS011;32620;51.704;7.822;2023-03-01T09:32:51;12.88;;;9.15;;
46415;SDS011;32620;51.704;7.822;2023-03-01T09:35:17;16.67;;;9.50;;
46415;SDS011;32620;51.704;7.822;2023-03-01T09:37:44;15.18;;;8.20;;
46415;SDS011;32620;51.704;7.822;2023-03-01T09:40:18;9.95;;;7.57;;
46415;SDS011;32620;51.704;7.822;2023-03-01T09:40:20;9.95;;;7.57;;
46415;SDS011;32620;51.704;7.822;2023-03-01T09:42:59;11.20;;;7.72;;
46415;SDS011;32620;51.704;7.822;2023-03-01T09:45:33;12.02;;;8.48;;
46415;SDS011;32620;51.704;7.822;2023-03-01T09:48:01;10.73;;;7.72;;
46415;SDS011;32620;51.704;7.822;2023-03-01T09:50:29;14.80;;;7.75;;
46415;SDS011;32620;51.704;7.822;2023-03-01T09:53:01;13.20;;;8.10;;
46415;SDS011;32620;51.704;7.822;2023-03-01T09:55:34;11.45;;;7.75;;
46415;SDS011;32620;51.704;7.822;2023-03-01T10:01:23;13.27;;;7.82;;
46415;SDS011;32620;51.704;7.822;2023-03-01T10:04:32;15.32;;;8.57;;
46415;SDS011;32620;51.704;7.822;2023-03-01T10:09:54;14.00;;;8.38;;
46415;SDS011;32620;51.704;7.822;2023-03-01T10:12:20;14.18;;;8.18;;
46415;SDS011;32620;51.704;7.822;2023-03-01T10:14:59;11.38;;;8.25;;
46415;SDS011;32620;51.704;7.822;2023-03-01T10:17:34;14.35;;;8.60;;
46415;SDS011;32620;51.704;7.822;2023-03-01T10:20:15;12.13;;;8.43;;
46415;SDS011;32620;51.704;7.822;2023-03-01T10:22:44;13.93;;;8.60;;
46415;SDS011;32620;51.704;7.822;2023-03-01T10:25:15;13.38;;;8.25;;
46415;SDS011;32620;51.704;7.822;2023-03-01T10:27:49;13.68;;;8.27;;
46415;SDS011;32620;51.704;7.822;2023-03-01T10:30:21;16.42;;;8.85;;
46415;SDS011;32620;51.704;7.822;2023-03-01T10:32:57;13.60;;;8.55;;
46415;SDS011;32620;51.704;7.822;2023-03-01T10:35:26;13.75;;;8.55;;
46415;SDS011;32620;51.704;7.822;2023-03-01T10:38:09;11.73;;;8.63;;
46415;SDS011;32620;51.704;7.822;2023-03-01T10:40:54;16.15;;;8.85;;
46415;SDS011;32620;51.704;7.822;2023-03-01T10:43:23;12.68;;;8.60;;
46415;SDS011;32620;51.704;7.822;2023-03-01T10:45:50;14.80;;;9.15;;
46415;SDS011;32620;51.704;7.822;2023-03-01T10:56:10;13.55;;;8.70;;
46415;SDS011;32620;51.704;7.822;2023-03-01T10:58:40;15.48;;;9.68;;
46415;SDS011;32620;51.704;7.822;2023-03-01T11:06:43;13.80;;;8.57;;
46415;SDS011;32620;51.704;7.822;2023-03-01T11:09:24;14.43;;;9.27;;
46415;SDS011;32620;51.704;7.822;2023-03-01T11:11:52;13.80;;;9.07;;
46415;SDS011;32620;51.704;7.822;2023-03-01T11:14:21;15.23;;;9.80;;
46415;SDS011;32620;51.704;7.822;2023-03-01T11:16:49;15.30;;;8.98;;
46415;SDS011;32620;51.704;7.822;2023-03-01T11:19:24;18.17;;;8.98;;
46415;SDS011;32620;51.704;7.822;2023-03-01T11:21:55;17.20;;;8.75;;
46415;SDS011;32620;51.704;7.822;2023-03-01T11:24:27;14.52;;;8.50;;
46415;SDS011;32620;51.704;7.822;2023-03-01T11:26:57;14.23;;;8.93;;
46415;SDS011;32620;51.704;7.822;2023-03-01T11:29:30;14.65;;;9.93;;
46415;SDS011;32620;51.704;7.822;2023-03-01T11:32:02;12.77;;;8.90;;
46415;SDS011;32620;51.704;7.822;2023-03-01T11:34:36;12.30;;;9.13;;
46415;SDS011;32620;51.704;7.822;2023-03-01T11:37:39;13.57;;;9.90;;
46415;SDS011;32620;51.704;7.822;2023-03-01T11:40:27;16.73;;;10.25;;
46415;SDS011;32620;51.704;7.822;2023-03-01T11:43:02;17.33;;;10.32;;
46415;SDS011;32620;51.704;7.822;2023-03-01T11:45:41;16.85;;;9.95;;
46415;SDS011;32620;51.704;7.822;2023-03-01T11:48:33;16.25;;;10.05;;
46415;SDS011;32620;51.704;7.822;2023-03-01T11:51:05;15.60;;;9.82;;
46415;SDS011;32620;51.704;7.822;2023-03-01T11:53:50;18.63;;;10.45;;
46415;SDS011;32620;51.704;7.822;2023-03-01T12:02:18;16.92;;;10.27;;
46415;SDS011;32620;51.704;7.822;2023-03-01T12:08:11;19.75;;;10.18;;
46415;SDS011;32620;51.704;7.822;2023-03-01T12:13:51;15.52;;;10.20;;
46415;SDS011;32620;51.704;7.822;2023-03-01T12:19:29;16.88;;;10.82;;
46415;SDS011;32620;51.704;7.822;2023-03-01T12:22:09;17.10;;;10.18;;
46415;SDS011;32620;51.704;7.822;2023-03-01T12:28:28;17.92;;;9.63;;
46415;SDS011;32620;51.704;7.822;2023-03-01T12:34:24;16.80;;;9.90;;
46415;SDS011;32620;51.704;7.822;2023-03-01T12:39:55;15.10;;;8.52;;
46415;SDS011;32620;51.704;7.822;2023-03-01T12:43:15;17.88;;;10.10;;
46415;SDS011;32620;51.704;7.822;2023-03-01T12:46:15;17.52;;;10.35;;
46415;SDS011;32620;51.704;7.822;2023-03-01T12:48:50;18.05;;;10.40;;
46415;SDS011;32620;51.704;7.822;2023-03-01T12:51:24;15.02;;;9.25;;
46415;SDS011;32620;51.704;7.822;2023-03-01T12:53:53;17.42;;;9.18;;
46415;SDS011;32620;51.704;7.822;2023-03-01T12:56:21;15.43;;;9.38;;
46415;SDS011;32620;51.704;7.822;2023-03-01T13:01:45;17.13;;;9.60;;
46415;SDS011;32620;51.704;7.822;2023-03-01T13:07:24;21.40;;;10.38;;
46415;SDS011;32620;51.704;7.822;2023-03-01T13:10:02;15.73;;;9.68;;
46415;SDS011;32620;51.704;7.822;2023-03-01T13:12:53;15.35;;;9.45;;
46415;SDS011;32620;51.704;7.822;2023-03-01T13:15:35;15.13;;;9.18;;
46415;SDS011;32620;51.704;7.822;2023-03-01T13:18:02;15.82;;;9.13;;
46415;SDS011;32620;51.704;7.822;2023-03-01T13:20:50;14.25;;;9.10;;
46415;SDS011;32620;51.704;7.822;2023-03-01T13:26:21;14.75;;;9.43;;
46415;SDS011;32620;51.704;7.822;2023-03-01T13:33:53;17.63;;;9.75;;
46415;SDS011;32620;51.704;7.822;2023-03-01T13:39:02;15.55;;;9.75;;
46415;SDS011;32620;51.704;7.822;2023-03-01T13:42:00;16.88;;;9.75;;
46415;SDS011;32620;51.704;7.822;2023-03-01T13:46:58;15.85;;;9.25;;
46415;SDS011;32620;51.704;7.822;2023-03-01T13:49:27;13.23;;;8.60;;
46415;SDS011;32620;51.704;7.822;2023-03-01T13:51:54;13.80;;;8.80;;
46415;SDS011;32620;51.704;7.822;2023-03-01T13:54:28;15.52;;;8.38;;
46415;SDS011;32620;51.704;7.822;2023-03-01T13:56:56;12.77;;;8.35;;
46415;SDS011;32620;51.704;7.822;2023-03-01T13:59:23;14.30;;;8.27;;
46415;SDS011;32620;51.704;7.822;2023-03-01T14:01:53;13.18;;;8.43;;
46415;SDS011;32620;51.704;7.822;2023-03-01T14:04:22;11.60;;;7.57;;
46415;SDS011;32620;51.704;7.822;2023-03-01T14:07:24;11.93;;;6.82;;
46415;SDS011;32620;51.704;7.822;2023-03-01T14:09:44;15.98;;;7.57;;
46415;SDS011;32620;51.704;7.822;2023-03-01T14:12:38;10.90;;;6.63;;
46415;SDS011;32620;51.704;7.822;2023-03-01T14:15:18;13.38;;;6.57;;
46415;SDS011;32620;51.704;7.822;2023-03-01T14:17:52;10.98;;;6.60;;
46415;SDS011;32620;51.704;7.822;2023-03-01T14:20:41;13.00;;;7.05;;
46415;SDS011;32620;51.704;7.822;2023-03-01T14:23:11;10.57;;;7.00;;
46415;SDS011;32620;51.704;7.822;2023-03-01T14:25:46;11.05;;;6.88;;
46415;SDS011;32620;51.704;7.822;2023-03-01T14:30:43;12.13;;;6.20;;
46415;SDS011;32620;51.704;7.822;2023-03-01T14:33:41;8.80;;;6.20;;
46415;SDS011;32620;51.704;7.822;2023-03-01T14:38:32;15.18;;;7.10;;
46415;SDS011;32620;51.704;7.822;2023-03-01T14:41:01;11.32;;;6.45;;
46415;SDS011;32620;51.704;7.822;2023-03-01T14:43:30;11.77;;;6.97;;
46415;SDS011;32620;51.704;7.822;2023-03-01T14:45:56;12.68;;;6.13;;
46415;SDS011;32620;51.704;7.822;2023-03-01T14:48:21;11.88;;;6.47;;
46415;SDS011;32620;51.704;7.822;2023-03-01T14:50:48;13.48;;;7.10;;
46415;SDS011;32620;51.704;7.822;2023-03-01T14:53:16;11.13;;;7.15;;
46415;SDS011;32620;51.704;7.822;2023-03-01T14:55:46;12.05;;;7.13;;
46415;SDS011;32620;51.704;7.822;2023-03-01T14:58:17;12.88;;;7.15;;
46415;SDS011;32620;51.704;7.822;2023-03-01T15:00:48;13.40;;;6.32;;
46415;SDS011;32620;51.704;7.822;2023-03-01T15:03:24;12.68;;;7.10;;
46415;SDS011;32620;51.704;7.822;2023-03-01T15:06:00;12.10;;;6.68;;
46415;SDS011;32620;51.704;7.822;2023-03-01T15:08:27;11.80;;;7.10;;
46415;SDS011;32620;51.704;7.822;2023-03-01T15:13:50;12.35;;;6.75;;
46415;SDS011;32620;51.704;7.822;2023-03-01T15:16:19;14.30;;;7.88;;
46415;SDS011;32620;51.704;7.822;2023-03-01T15:19:05;12.30;;;7.07;;
46415;SDS011;32620;51.704;7.822;2023-03-01T15:24:19;9.75;;;6.65;;
46415;SDS011;32620;51.704;7.822;2023-03-01T15:26:52;14.90;;;6.40;;
46415;SDS011;32620;51.704;7.822;2023-03-01T15:29:23;11.25;;;6.47;;
46415;SDS011;32620;51.704;7.822;2023-03-01T15:31:55;14.83;;;7.27;;
46415;SDS011;32620;51.704;7.822;2023-03-01T15:34:25;11.50;;;7.15;;
46415;SDS011;32620;51.704;7.822;2023-03-01T15:36:53;10.75;;;6.93;;
46415;SDS011;32620;51.704;7.822;2023-03-01T15:39:35;11.32;;;6.07;;
46415;SDS011;32620;51.704;7.822;2023-03-01T15:45:08;10.40;;;6.10;;
46415;SDS011;32620;51.704;7.822;2023-03-01T15:47:35;10.70;;;6.40;;
46415;SDS011;32620;51.704;7.822;2023-03-01T15:50:03;11.45;;;6.82;;
46415;SDS011;32620;51.704;7.822;2023-03-01T15:52:32;14.80;;;5.80;;
46415;SDS011;32620;51.704;7.822;2023-03-01T15:55:05;11.32;;;6.15;;
46415;SDS011;32620;51.704;7.822;2023-03-01T15:57:40;12.32;;;6.28;;